Time;durP1;ratioP1;P1;durP2;ratioP2;P2;SDS_P1;SDS_P2;PMS_P1;PMS_P2;Temp;Humidity;BMP_temperature;BMP_pressure;BME280_temperature;BME280_humidity;BME280_pressure;Samples;Min_cycle;Max_cycle;Signal;HPM_P1;HPM_P2
2022/07/16 00:01:22;;;;;;;6.85;4.80;;;;;;;14.82;56.07;94323.50;5010927;28;20064;-62
2022/07/16 00:01:45;;;;;;;6.65;4.53;;;;;;;14.81;55.72;94323.91;5013830;28;21789;-62
2022/07/16 00:04:12;;;;;;;7.20;4.60;;;;;;;14.78;55.88;94312.53;5010472;28;20497;-62
2022/07/16 00:06:39;;;;;;;8.18;4.65;;;;;;;14.75;56.21;94324.44;5010946;28;20406;-63
2022/07/16 00:09:05;;;;;;;7.38;4.75;;;;;;;14.71;56.35;94331.28;5010507;28;20054;-67
2022/07/16 00:11:32;;;;;;;9.70;4.65;;;;;;;14.63;56.55;94333.44;5010833;28;20054;-65
2022/07/16 00:13:59;;;;;;;7.05;4.60;;;;;;;14.57;56.78;94329.63;4997951;28;20053;-61
2022/07/16 00:16:26;;;;;;;7.90;4.93;;;;;;;14.51;57.35;94326.59;5007579;28;20091;-61
2022/07/16 00:21:38;;;;;;;7.45;4.80;;;;;;;14.44;57.67;94328.72;5009824;28;20439;-63
2022/07/16 00:24:07;;;;;;;8.13;4.75;;;;;;;14.42;57.40;94328.38;5010319;28;20064;-62
2022/07/16 00:26:34;;;;;;;6.82;4.60;;;;;;;14.38;57.57;94336.75;5009974;28;20066;-66
2022/07/16 00:29:01;;;;;;;7.67;4.93;;;;;;;14.35;57.36;94337.63;5002945;28;20050;-65
2022/07/16 00:31:28;;;;;;;6.68;4.75;;;;;;;14.35;58.02;94335.63;4990195;28;20839;-61
2022/07/16 00:33:55;;;;;;;8.13;4.75;;;;;;;14.36;57.60;94325.34;5010061;28;20046;-61
2022/07/16 00:36:22;;;;;;;7.50;4.57;;;;;;;14.33;57.74;94329.75;5009044;28;22851;-63
2022/07/16 00:38:48;;;;;;;6.78;4.80;;;;;;;14.29;57.60;94315.25;5010247;28;20072;-67
2022/07/16 00:41:18;;;;;;;6.90;4.53;;;;;;;14.31;57.29;94317.59;5010058;28;20049;-64
2022/07/16 00:43:56;;;;;;;8.35;4.85;;;;;;;14.22;57.38;94315.41;5010422;28;20045;-65
2022/07/16 00:46:22;;;;;;;9.68;5.15;;;;;;;14.13;57.83;94318.00;5005931;28;20085;-68
2022/07/16 00:48:50;;;;;;;8.55;4.97;;;;;;;14.04;57.90;94315.81;5014213;28;20111;-68
2022/07/16 00:51:16;;;;;;;6.90;4.75;;;;;;;14.02;57.86;94318.22;5013683;28;20064;-63
2022/07/16 00:53:44;;;;;;;6.97;4.90;;;;;;;13.84;59.19;94321.38;5014437;28;20052;-62
2022/07/16 00:56:13;;;;;;;7.30;4.78;;;;;;;13.56;59.89;94311.69;5013794;28;20041;-62
2022/07/16 00:58:43;;;;;;;7.00;4.90;;;;;;;13.64;59.70;94313.13;5014327;28;20483;-62
2022/07/16 01:01:12;;;;;;;8.05;5.30;;;;;;;13.70;59.61;94318.91;5013808;28;20115;-64
2022/07/16 01:03:39;;;;;;;7.78;5.45;;;;;;;13.66;59.69;94319.00;5019642;28;20053;-67
2022/07/16 01:06:08;;;;;;;7.20;5.00;;;;;;;13.75;59.32;94321.19;5011731;28;20052;-62
2022/07/16 01:08:37;;;;;;;7.65;4.93;;;;;;;13.76;59.42;94329.03;4994602;28;20042;-62
2022/07/16 01:11:08;;;;;;;8.38;5.10;;;;;;;13.74;59.34;94319.63;5012756;28;20057;-61
2022/07/16 01:13:38;;;;;;;7.13;4.88;;;;;;;13.74;59.27;94311.34;5013909;28;20076;-67
2022/07/16 01:16:05;;;;;;;7.82;4.68;;;;;;;13.77;59.09;94316.78;5012112;28;20106;-62
2022/07/16 01:18:32;;;;;;;7.27;5.33;;;;;;;13.75;59.19;94310.91;5014051;28;20042;-63
2022/07/16 01:20:59;;;;;;;7.35;4.82;;;;;;;13.68;59.44;94311.09;5013765;28;20036;-65
2022/07/16 01:23:26;;;;;;;9.10;5.20;;;;;;;13.65;59.30;94314.69;5013345;28;20108;-62
2022/07/16 01:25:53;;;;;;;8.55;5.40;;;;;;;13.53;60.00;94310.59;5013708;28;20037;-62
2022/07/16 01:28:20;;;;;;;17.48;11.35;;;;;;;13.44;60.54;94312.34;5013099;28;20072;-65
2022/07/16 01:30:48;;;;;;;12.30;7.67;;;;;;;13.34;60.62;94306.63;5013858;28;20072;-64
2022/07/16 01:33:27;;;;;;;11.18;5.75;;;;;;;13.26;61.26;94313.47;5011239;28;20050;-62
2022/07/16 01:35:59;;;;;;;7.38;5.13;;;;;;;13.19;61.09;94316.34;5005297;28;20049;-62
2022/07/16 01:38:27;;;;;;;6.72;4.78;;;;;;;13.19;61.58;94316.34;5010057;28;20405;-67
2022/07/16 01:40:54;;;;;;;7.47;5.25;;;;;;;13.19;61.66;94310.84;5013536;28;20503;-62
2022/07/16 01:43:26;;;;;;;9.07;5.33;;;;;;;13.19;61.09;94319.88;5012902;28;20060;-62
2022/07/16 01:45:55;;;;;;;8.18;5.22;;;;;;;13.22;60.95;94317.47;5013432;28;20048;-64
2022/07/16 01:48:22;;;;;;;8.25;5.40;;;;;;;13.17;61.03;94314.00;5012889;28;20045;-66
2022/07/16 01:50:51;;;;;;;10.10;5.50;;;;;;;13.08;61.33;94315.75;5009416;28;20453;-65
2022/07/16 01:53:18;;;;;;;8.80;5.35;;;;;;;13.11;61.22;94309.41;5012699;28;20042;-64
2022/07/16 01:55:45;;;;;;;9.83;5.60;;;;;;;13.06;61.59;94309.88;5012461;28;20050;-62
2022/07/16 01:58:13;;;;;;;9.15;5.30;;;;;;;13.06;61.14;94298.88;5012606;28;20054;-61
2022/07/16 02:00:44;;;;;;;6.82;4.80;;;;;;;12.79;62.57;94303.28;5013023;28;20520;-62
2022/07/16 02:03:12;;;;;;;9.18;5.28;;;;;;;12.51;63.07;94304.53;5015888;28;20054;-61
2022/07/16 02:05:40;;;;;;;8.32;5.30;;;;;;;12.52;63.63;94299.81;5013016;28;20046;-61
2022/07/16 02:08:07;;;;;;;7.80;5.10;;;;;;;12.56;63.34;94298.56;5012632;28;20060;-62
2022/07/16 02:10:34;;;;;;;9.32;5.57;;;;;;;12.57;63.24;94294.59;5012962;28;20045;-61
2022/07/16 02:13:02;;;;;;;7.72;5.18;;;;;;;12.60;63.37;94295.75;5012730;28;20034;-62
2022/07/16 02:15:29;;;;;;;8.18;5.10;;;;;;;12.64;63.24;94299.22;5012081;28;20874;-66
2022/07/16 02:17:56;;;;;;;6.90;5.15;;;;;;;12.62;63.04;94303.59;5012813;28;20038;-67
2022/07/16 02:20:23;;;;;;;8.23;5.53;;;;;;;12.56;62.98;94301.31;5043733;28;20038;-62
2022/07/16 02:22:52;;;;;;;7.72;5.50;;;;;;;12.55;62.62;94296.22;5012804;28;20080;-70
2022/07/16 02:25:19;;;;;;;8.40;5.70;;;;;;;12.56;62.77;94297.78;4996584;28;20037;-62
2022/07/16 02:30:30;;;;;;;8.20;5.55;;;;;;;12.47;63.33;94303.81;5011590;28;20675;-62
2022/07/16 02:32:57;;;;;;;8.87;5.23;;;;;;;12.38;63.33;94303.59;5012316;28;20068;-65
2022/07/16 02:35:24;;;;;;;7.80;5.55;;;;;;;12.42;63.66;94309.03;5014788;28;20054;-62
2022/07/16 02:37:51;;;;;;;7.85;5.70;;;;;;;12.39;63.40;94303.19;5012388;28;20492;-64
2022/07/16 02:40:18;;;;;;;9.00;5.20;;;;;;;12.42;63.28;94296.06;5012130;28;20046;-62
2022/07/16 02:42:45;;;;;;;9.70;5.40;;;;;;;12.43;63.35;94300.34;5010565;28;20068;-62
2022/07/16 02:45:12;;;;;;;7.47;5.10;;;;;;;12.38;63.10;94307.13;5011987;28;20384;-65
2022/07/16 02:47:38;;;;;;;8.07;5.68;;;;;;;12.33;63.24;94302.06;5008662;28;20108;-62
2022/07/16 02:50:07;;;;;;;9.27;5.47;;;;;;;12.23;64.11;94300.25;5011755;28;20049;-63
2022/07/16 02:52:34;;;;;;;8.40;5.18;;;;;;;12.26;63.92;94298.69;5012213;28;20390;-64
2022/07/16 02:55:03;;;;;;;9.27;5.78;;;;;;;12.28;63.78;94302.56;5012175;28;20505;-69
2022/07/16 02:57:30;;;;;;;8.00;5.50;;;;;;;12.29;63.81;94297.81;5011200;28;20625;-67
2022/07/16 02:59:57;;;;;;;7.60;5.20;;;;;;;12.27;63.58;94302.97;5012325;28;20117;-63
2022/07/16 03:02:23;;;;;;;7.47;5.38;;;;;;;12.23;63.97;94303.00;5019159;28;20038;-64
2022/07/16 03:04:50;;;;;;;10.38;5.25;;;;;;;12.15;63.61;94307.06;5010639;28;20052;-63
2022/07/16 03:07:17;;;;;;;8.90;5.60;;;;;;;12.14;63.51;94311.03;5010324;28;20406;-69
2022/07/16 03:09:44;;;;;;;8.03;5.67;;;;;;;12.12;63.95;94307.91;5011766;28;20441;-65
2022/07/16 03:12:11;;;;;;;8.45;5.47;;;;;;;12.00;64.11;94320.28;5011335;28;20058;-64
2022/07/16 03:14:37;;;;;;;7.85;5.20;;;;;;;12.00;64.01;94309.25;5011819;28;20585;-63
2022/07/16 03:17:04;;;;;;;8.90;5.25;;;;;;;12.00;63.83;94317.53;5011239;28;20517;-63
2022/07/16 03:19:31;;;;;;;9.05;5.60;;;;;;;11.99;64.12;94318.69;5011574;28;20380;-64
2022/07/16 03:21:57;;;;;;;8.87;5.80;;;;;;;11.99;64.00;94314.00;5010382;28;20057;-63
2022/07/16 03:24:24;;;;;;;8.93;5.35;;;;;;;11.81;64.89;94321.66;5011011;28;20049;-69
2022/07/16 03:26:51;;;;;;;8.40;5.65;;;;;;;11.83;65.28;94324.00;5011278;28;20052;-63
2022/07/16 03:29:17;;;;;;;8.35;5.25;;;;;;;11.82;65.11;94320.47;5011071;28;20458;-63
2022/07/16 03:31:44;;;;;;;8.60;5.70;;;;;;;11.77;65.53;94329.97;5011233;28;20069;-63
2022/07/16 03:34:11;;;;;;;11.20;6.17;;;;;;;11.46;67.01;94323.69;5017245;28;20037;-63
2022/07/16 03:36:37;;;;;;;10.85;5.75;;;;;;;11.64;66.42;94317.97;5018393;28;20045;-67
2022/07/16 03:39:04;;;;;;;8.20;5.80;;;;;;;11.71;66.24;94322.59;5010885;28;20056;-62
2022/07/16 03:41:32;;;;;;;10.32;5.85;;;;;;;11.71;65.79;94322.59;5010238;28;20052;-63
2022/07/16 03:44:00;;;;;;;8.52;5.63;;;;;;;11.71;65.29;94319.84;5010845;28;20052;-63
2022/07/16 03:46:27;;;;;;;8.10;5.40;;;;;;;11.72;65.47;94327.69;5010453;28;20073;-66
2022/07/16 03:48:53;;;;;;;7.72;5.03;;;;;;;11.76;65.40;94338.63;5011274;28;20048;-63
2022/07/16 03:51:20;;;;;;;9.02;5.25;;;;;;;11.75;64.86;94335.13;5010500;28;20056;-68
2022/07/16 03:53:47;;;;;;;7.65;5.15;;;;;;;11.76;64.69;94344.13;5010919;28;20054;-64
2022/07/16 03:56:14;;;;;;;10.40;5.82;;;;;;;11.77;64.66;94338.22;5010314;28;20068;-63
2022/07/16 03:58:41;;;;;;;10.50;5.97;;;;;;;11.66;65.15;94332.06;5010758;28;20061;-63
2022/07/16 04:01:08;;;;;;;8.80;5.47;;;;;;;11.70;65.24;94343.81;5010537;28;20067;-65
2022/07/16 04:03:36;;;;;;;9.35;5.20;;;;;;;11.74;65.25;94343.78;5017351;28;20049;-63
2022/07/16 04:06:04;;;;;;;8.02;5.45;;;;;;;11.79;65.10;94337.78;5010244;28;20069;-64
2022/07/16 04:08:31;;;;;;;9.60;5.53;;;;;;;11.69;65.33;94345.00;5010942;28;20069;-63
2022/07/16 04:10:58;;;;;;;8.20;5.63;;;;;;;11.69;65.20;94338.72;5010900;28;20087;-65
2022/07/16 04:13:24;;;;;;;8.90;5.90;;;;;;;11.71;65.36;94336.34;5010242;28;20064;-63
2022/07/16 04:15:51;;;;;;;8.52;5.45;;;;;;;11.69;65.39;94339.50;5010681;28;20103;-63
2022/07/16 04:18:19;;;;;;;10.40;5.70;;;;;;;11.78;65.23;94347.25;5009978;28;20057;-66
2022/07/16 04:20:47;;;;;;;8.07;5.57;;;;;;;11.80;65.25;94344.88;5010536;28;20410;-63
2022/07/16 04:23:14;;;;;;;7.70;5.73;;;;;;;11.49;65.86;94347.63;5010047;28;20038;-65
2022/07/16 04:25:41;;;;;;;10.32;5.90;;;;;;;11.26;67.46;94350.22;5010624;28;20402;-68
2022/07/16 04:28:08;;;;;;;8.30;5.55;;;;;;;11.24;67.55;94353.38;4994918;28;20050;-65
2022/07/16 04:30:36;;;;;;;10.55;6.05;;;;;;;11.48;66.97;94359.00;5041607;28;20404;-68
2022/07/16 04:33:03;;;;;;;9.85;6.22;;;;;;;11.51;66.83;94364.47;5010258;28;20479;-62
2022/07/16 04:35:30;;;;;;;8.60;6.10;;;;;;;11.58;66.43;94358.88;5012648;28;20050;-63
2022/07/16 04:37:57;;;;;;;9.45;5.78;;;;;;;11.49;66.88;94366.03;5010568;28;20049;-67
2022/07/16 04:40:23;;;;;;;9.10;5.50;;;;;;;11.56;66.29;94361.25;5010186;28;20056;-64
2022/07/16 04:42:50;;;;;;;9.57;5.75;;;;;;;11.70;66.06;94360.31;5008558;28;20434;-68
2022/07/16 04:45:17;;;;;;;9.57;5.50;;;;;;;11.72;66.02;94359.91;5010173;28;20391;-66
2022/07/16 04:47:43;;;;;;;8.70;5.77;;;;;;;11.83;65.71;94362.50;5010439;28;20091;-63
2022/07/16 04:50:10;;;;;;;9.02;5.75;;;;;;;11.86;65.21;94362.47;5010014;28;20064;-63
2022/07/16 04:52:37;;;;;;;8.32;5.78;;;;;;;11.81;65.65;94360.16;5010309;28;20453;-66
2022/07/16 04:55:05;;;;;;;9.20;6.10;;;;;;;12.01;65.04;94365.81;5009767;28;20042;-63
2022/07/16 04:57:32;;;;;;;8.50;6.07;;;;;;;12.17;64.86;94368.75;5010391;28;20445;-62
2022/07/16 04:59:59;;;;;;;7.97;5.57;;;;;;;12.34;64.61;94366.94;5010495;28;20475;-68
2022/07/16 05:05:11;;;;;;;9.32;6.00;;;;;;;12.19;65.18;94371.88;4997260;28;20041;-64
2022/07/16 05:07:38;;;;;;;9.18;6.10;;;;;;;12.37;64.71;94359.81;4997131;28;20410;-63
2022/07/16 05:10:05;;;;;;;9.88;6.40;;;;;;;12.17;65.12;94363.25;5007418;28;20549;-68
2022/07/16 05:12:32;;;;;;;9.90;6.50;;;;;;;12.34;64.75;94360.66;5010179;28;20088;-63
2022/07/16 05:14:59;;;;;;;9.50;6.60;;;;;;;12.46;64.95;94362.06;5010139;28;20509;-65
2022/07/16 05:17:25;;;;;;;9.93;6.53;;;;;;;12.25;65.57;94358.41;5009605;28;20495;-63
2022/07/16 05:19:52;;;;;;;10.23;6.90;;;;;;;12.21;66.03;94362.41;5009975;28;20050;-63
2022/07/16 05:22:19;;;;;;;9.07;6.72;;;;;;;12.41;65.44;94352.28;5009598;28;20042;-66
2022/07/16 05:24:46;;;;;;;10.43;6.20;;;;;;;12.39;65.57;94352.72;5010019;28;20053;-64
2022/07/16 05:27:12;;;;;;;8.85;6.35;;;;;;;12.33;65.89;94361.84;5009434;28;20057;-64
2022/07/16 05:29:39;;;;;;;12.23;6.90;;;;;;;12.47;65.43;94366.34;5009950;28;20052;-63
2022/07/16 05:32:06;;;;;;;9.10;6.35;;;;;;;12.72;64.64;94363.22;5012670;28;20052;-63
2022/07/16 05:34:33;;;;;;;10.07;6.82;;;;;;;14.05;60.83;94369.03;5016892;28;20116;-64
2022/07/16 05:36:59;;;;;;;8.30;6.10;;;;;;;17.45;50.93;94355.31;5013561;28;20392;-64
2022/07/16 05:39:29;;;;;;;8.63;6.30;;;;;;;20.34;44.47;94355.28;5012461;28;20388;-63
2022/07/16 05:41:57;;;;;;;9.45;5.97;;;;;;;22.77;38.55;94355.47;5013690;28;20038;-63
2022/07/16 05:44:24;;;;;;;7.57;5.30;;;;;;;21.87;39.39;94346.28;5012871;28;20057;-69
2022/07/16 05:46:51;;;;;;;8.35;5.65;;;;;;;20.06;41.78;94360.94;5005953;28;20046;-64
2022/07/16 05:49:17;;;;;;;7.63;5.70;;;;;;;19.93;42.55;94357.53;5003968;28;20038;-63
2022/07/16 05:51:44;;;;;;;6.57;5.40;;;;;;;20.99;40.39;94369.00;5013177;28;20046;-63
2022/07/16 05:54:11;;;;;;;7.57;5.78;;;;;;;23.18;36.39;94360.41;5012806;28;20058;-65
2022/07/16 05:56:37;;;;;;;6.72;5.07;;;;;;;25.18;33.13;94361.50;5013094;28;20050;-64
2022/07/16 05:59:04;;;;;;;6.82;5.18;;;;;;;25.54;32.29;94349.97;5012890;28;20050;-68
2022/07/16 06:01:31;;;;;;;7.30;5.27;;;;;;;25.95;31.32;94353.22;5014823;28;20406;-64
2022/07/16 06:03:58;;;;;;;7.57;5.10;;;;;;;26.45;31.18;94349.00;5014090;28;20053;-63
2022/07/16 06:06:25;;;;;;;5.85;5.10;;;;;;;26.73;30.23;94345.47;5007936;28;20410;-65
2022/07/16 06:08:52;;;;;;;7.03;4.88;;;;;;;27.33;29.35;94354.38;5012996;28;20046;-64
2022/07/16 06:11:18;;;;;;;5.80;5.00;;;;;;;26.78;29.96;94362.34;5012340;28;20048;-69
2022/07/16 06:13:45;;;;;;;6.40;5.10;;;;;;;27.87;28.76;94356.06;5012751;28;20056;-64
2022/07/16 06:16:12;;;;;;;9.00;5.10;;;;;;;28.68;26.72;94353.03;5012380;28;20099;-63
2022/07/16 06:18:41;;;;;;;6.43;4.88;;;;;;;28.21;28.17;94350.22;5012835;28;20049;-64
2022/07/16 06:21:08;;;;;;;8.80;5.20;;;;;;;29.17;26.75;94346.75;5012278;28;20388;-63
2022/07/16 06:23:35;;;;;;;8.68;4.85;;;;;;;30.67;24.69;94353.19;5012613;28;20078;-64
2022/07/16 06:26:02;;;;;;;7.60;5.30;;;;;;;29.35;25.43;94354.53;5012601;28;20410;-64
2022/07/16 06:28:30;;;;;;;7.80;4.80;;;;;;;28.23;27.06;94364.56;5011693;28;20666;-65
2022/07/16 06:30:57;;;;;;;6.88;4.60;;;;;;;26.85;29.91;94363.88;5012634;28;20486;-64
2022/07/16 06:33:23;;;;;;;7.20;5.00;;;;;;;27.32;29.09;94369.75;4997359;28;20065;-69
2022/07/16 06:35:50;;;;;;;7.22;4.75;;;;;;;28.37;27.94;94362.69;5022323;28;20042;-64
2022/07/16 06:38:17;;;;;;;9.03;4.50;;;;;;;29.36;26.36;94361.72;5011871;28;20512;-64
2022/07/16 06:40:44;;;;;;;7.07;4.50;;;;;;;30.58;24.42;94360.00;5012057;28;20054;-64
2022/07/16 06:43:11;;;;;;;6.90;4.28;;;;;;;32.07;22.94;94359.78;5011587;28;20061;-64
2022/07/16 06:45:38;;;;;;;7.55;4.85;;;;;;;33.62;21.57;94358.00;5012121;28;20072;-65
2022/07/16 06:48:05;;;;;;;7.20;4.47;;;;;;;33.93;20.78;94353.25;5012062;28;20414;-68
2022/07/16 06:50:32;;;;;;;6.23;4.30;;;;;;;33.82;20.74;94351.47;4998618;28;20051;-64
2022/07/16 06:52:58;;;;;;;7.00;4.30;;;;;;;32.13;22.17;94347.00;5010829;28;20507;-65
2022/07/16 06:55:26;;;;;;;6.13;4.45;;;;;;;33.93;20.99;94346.81;5011553;28;20050;-65
2022/07/16 06:57:53;;;;;;;5.97;4.68;;;;;;;34.60;19.81;94349.78;5011956;28;20049;-65
2022/07/16 07:00:20;;;;;;;5.05;4.05;;;;;;;34.47;19.90;94355.59;5011775;28;20042;-65
2022/07/16 07:02:46;;;;;;;6.40;4.60;;;;;;;32.09;22.68;94346.56;5022443;28;20042;-69
2022/07/16 07:05:14;;;;;;;8.65;4.10;;;;;;;34.07;20.14;94339.66;5011442;28;20056;-64
2022/07/16 07:07:40;;;;;;;6.00;4.30;;;;;;;31.74;22.41;94353.47;5011711;28;20041;-65
2022/07/16 07:10:07;;;;;;;6.97;4.40;;;;;;;30.26;24.54;94360.69;5011229;28;20042;-66
2022/07/16 07:12:34;;;;;;;8.30;4.28;;;;;;;32.06;22.77;94359.03;5011724;28;20092;-65
2022/07/16 07:15:02;;;;;;;11.67;4.93;;;;;;;30.99;23.57;94360.97;5011558;28;20418;-65
2022/07/16 07:17:29;;;;;;;8.13;4.80;;;;;;;29.47;25.45;94363.66;5010796;28;20801;-64
2022/07/16 07:19:55;;;;;;;5.75;4.38;;;;;;;31.28;23.24;94369.75;5011434;28;20046;-65
2022/07/16 07:22:22;;;;;;;7.40;4.97;;;;;;;29.60;25.18;94369.44;5011080;28;20041;-65
2022/07/16 07:24:50;;;;;;;6.43;4.38;;;;;;;31.87;22.67;94369.72;5010229;28;20120;-65
2022/07/16 07:27:18;;;;;;;6.87;4.10;;;;;;;28.84;26.80;94365.50;5010459;28;20060;-65
2022/07/16 07:29:45;;;;;;;6.45;4.88;;;;;;;27.83;28.32;94369.59;5011480;28;20046;-65
2022/07/16 07:32:13;;;;;;;8.45;4.22;;;;;;;32.77;22.00;94362.16;5010628;28;20060;-69
2022/07/16 07:34:40;;;;;;;6.95;4.20;;;;;;;34.19;20.89;94365.78;5015633;28;20702;-68
2022/07/16 07:37:08;;;;;;;6.95;4.55;;;;;;;34.28;20.67;94362.38;5008653;28;20384;-69
2022/07/16 07:39:35;;;;;;;6.60;5.13;;;;;;;32.58;22.47;94353.81;5010901;28;20042;-64
2022/07/16 07:42:02;;;;;;;7.45;4.50;;;;;;;31.99;23.56;94357.56;5011050;28;20038;-65
2022/07/16 07:44:29;;;;;;;10.45;4.97;;;;;;;30.02;25.56;94357.91;5010028;28;20817;-65
2022/07/16 07:46:56;;;;;;;8.23;5.25;;;;;;;27.11;29.98;94357.97;5011065;28;20741;-68
2022/07/16 07:49:22;;;;;;;8.60;5.00;;;;;;;29.11;27.21;94362.94;5010781;28;20425;-66
2022/07/16 07:51:49;;;;;;;9.17;5.17;;;;;;;26.54;30.67;94364.84;5010931;28;20490;-70
2022/07/16 07:54:16;;;;;;;12.27;9.40;;;;;;;29.26;27.14;94349.22;5009773;28;20056;-64
2022/07/16 07:56:43;;;;;;;7.28;4.78;;;;;;;28.55;27.65;94358.50;5010734;28;20042;-65
2022/07/16 07:59:10;;;;;;;7.65;4.90;;;;;;;27.42;28.70;94347.69;5010363;28;20406;-70
2022/07/16 08:01:36;;;;;;;8.10;5.43;;;;;;;26.33;30.49;94364.31;5012758;28;20116;-66
2022/07/16 08:04:04;;;;;;;8.37;5.20;;;;;;;29.20;26.41;94354.94;5010302;28;20037;-66
2022/07/16 08:06:31;;;;;;;6.43;4.72;;;;;;;30.22;24.98;94354.56;5010759;28;20045;-68
2022/07/16 08:08:58;;;;;;;7.38;4.88;;;;;;;26.65;29.68;94353.66;5010641;28;20044;-65
2022/07/16 08:11:31;;;;;;;8.15;4.40;;;;;;;27.42;28.57;94358.97;5009830;28;20050;-66
2022/07/16 08:13:58;;;;;;;7.13;4.50;;;;;;;27.41;27.43;94351.81;5006338;28;20038;-65
2022/07/16 08:16:45;;;;;;;10.33;4.47;;;;;;;30.81;23.42;94354.00;5003346;28;20358;-67
2022/07/16 08:19:11;;;;;;;8.15;3.97;;;;;;;29.57;25.03;94352.75;5009770;28;20050;-65
2022/07/16 08:21:38;;;;;;;6.38;4.20;;;;;;;27.41;27.47;94352.56;5010344;28;20064;-64
2022/07/16 08:26:51;;;;;;;6.47;4.00;;;;;;;27.88;26.21;94343.47;5010393;28;20119;-69
2022/07/16 08:29:17;;;;;;;14.70;13.07;;;;;;;29.15;24.15;94349.31;5009888;28;20041;-67
2022/07/16 08:31:44;;;;;;;5.43;3.58;;;;;;;31.01;21.43;94350.59;5010440;28;20038;-65
2022/07/16 08:34:11;;;;;;;6.15;3.95;;;;;;;29.00;24.40;94339.16;5017341;28;20046;-66
2022/07/16 08:36:38;;;;;;;6.30;3.70;;;;;;;28.60;25.79;94344.34;5012793;28;20044;-65
2022/07/16 08:39:05;;;;;;;7.35;3.92;;;;;;;28.51;24.82;94343.91;5008510;28;20048;-65
2022/07/16 08:41:33;;;;;;;6.47;3.60;;;;;;;29.89;23.67;94335.19;5010313;28;20108;-66
2022/07/16 08:44:00;;;;;;;6.85;3.90;;;;;;;27.57;26.15;94339.72;5010318;28;20042;-64
2022/07/16 08:46:28;;;;;;;6.40;4.00;;;;;;;27.75;25.83;94338.38;5000362;28;20042;-67
2022/07/16 08:48:56;;;;;;;8.20;3.97;;;;;;;29.39;23.37;94340.84;5006609;28;20502;-68
2022/07/16 08:51:37;;;;;;;6.30;3.65;;;;;;;31.14;22.27;94337.75;5041375;28;20049;-66
2022/07/16 08:54:15;;;;;;;4.97;3.53;;;;;;;33.04;20.36;94335.13;5009863;28;20045;-67
2022/07/16 08:56:43;;;;;;;5.30;3.20;;;;;;;34.40;18.96;94343.63;5010142;28;20209;-69
2022/07/16 08:59:12;;;;;;;7.05;3.88;;;;;;;30.83;22.01;94349.31;5009804;28;20124;-64
2022/07/16 09:01:39;;;;;;;7.40;4.00;;;;;;;30.80;22.02;94350.38;5013073;28;20316;-66
2022/07/16 09:04:06;;;;;;;5.70;3.65;;;;;;;34.66;18.65;94343.94;5015811;28;20050;-64
2022/07/16 09:06:33;;;;;;;5.40;3.60;;;;;;;35.24;17.66;94348.03;5031777;28;20057;-68
2022/07/16 09:09:00;;;;;;;5.90;3.72;;;;;;;32.41;20.59;94352.06;5000669;28;20046;-70
2022/07/16 09:11:33;;;;;;;5.85;3.72;;;;;;;32.52;20.07;94353.13;5013481;28;20052;-64
2022/07/16 09:14:06;;;;;;;6.97;3.60;;;;;;;35.08;17.87;94352.19;5010720;28;20065;-70
2022/07/16 09:16:46;;;;;;;4.47;3.20;;;;;;;36.12;16.50;94347.56;5008158;28;20064;-64
2022/07/16 09:19:17;;;;;;;4.93;3.40;;;;;;;33.97;17.92;94352.91;5013287;28;20418;-68
2022/07/16 09:22:06;;;;;;;6.65;3.50;;;;;;;32.63;19.61;94352.91;5013837;28;20274;-67
2022/07/16 09:24:44;;;;;;;6.07;3.70;;;;;;;29.32;23.02;94358.41;5012922;28;20308;-64
2022/07/16 09:27:22;;;;;;;5.20;3.53;;;;;;;32.89;19.00;94349.19;5012928;28;20054;-64
2022/07/16 09:29:58;;;;;;;5.20;3.35;;;;;;;35.16;16.43;94359.44;5013388;28;20045;-65
2022/07/16 09:32:28;;;;;;;6.43;3.30;;;;;;;36.66;15.38;94352.34;5013427;28;20173;-64
2022/07/16 09:35:10;;;;;;;6.57;3.30;;;;;;;36.27;16.17;94357.44;5023629;28;20038;-64
2022/07/16 09:37:52;;;;;;;6.35;3.50;;;;;;;33.32;18.47;94345.03;5012953;28;20693;-65
2022/07/16 09:40:36;;;;;;;6.03;3.38;;;;;;;32.35;20.00;94354.25;5012735;28;20046;-64
2022/07/16 09:43:17;;;;;;;5.28;3.40;;;;;;;32.50;18.77;94361.44;5013073;28;20041;-66
2022/07/16 09:45:46;;;;;;;5.17;3.00;;;;;;;35.51;15.87;94350.50;5001408;28;20056;-65
2022/07/16 09:48:24;;;;;;;4.90;3.08;;;;;;;37.68;14.83;94351.84;5012831;28;20049;-64
2022/07/16 09:50:52;;;;;;;5.22;3.40;;;;;;;35.52;15.92;94355.63;5013269;28;20050;-65
2022/07/16 09:53:22;;;;;;;5.25;3.40;;;;;;;32.59;18.69;94353.25;5012888;28;20053;-65
2022/07/16 09:56:00;;;;;;;5.88;3.72;;;;;;;31.62;19.76;94348.00;5013034;28;20041;-64
2022/07/16 09:58:27;;;;;;;5.50;3.50;;;;;;;31.54;18.44;94357.69;5012473;28;20042;-64
2022/07/16 10:00:54;;;;;;;5.70;3.28;;;;;;;33.57;17.49;94356.81;5010387;28;20120;-66
2022/07/16 10:03:21;;;;;;;5.18;3.30;;;;;;;31.82;19.19;94357.16;5007699;28;20042;-69
2022/07/16 10:05:48;;;;;;;7.65;3.40;;;;;;;33.07;17.30;94364.53;5007183;28;20053;-65
2022/07/16 10:08:16;;;;;;;4.50;3.17;;;;;;;35.62;14.97;94355.81;5012687;28;20037;-64
2022/07/16 10:10:45;;;;;;;5.17;3.00;;;;;;;35.97;14.90;94361.88;5012945;28;20056;-69
2022/07/16 10:13:13;;;;;;;6.60;2.90;;;;;;;36.52;14.13;94351.78;5012281;28;20042;-66
2022/07/16 10:15:41;;;;;;;4.68;2.90;;;;;;;37.59;12.87;94347.56;5005555;28;20038;-69
2022/07/16 10:18:35;;;;;;;4.82;2.63;;;;;;;35.93;14.56;94355.78;5005934;28;20049;-65
2022/07/16 10:21:11;;;;;;;5.70;2.92;;;;;;;31.62;17.71;94352.91;5012182;28;20037;-62
2022/07/16 10:23:40;;;;;;;5.33;3.03;;;;;;;33.22;16.02;94346.84;5011631;28;20504;-65
2022/07/16 10:26:12;;;;;;;4.03;2.70;;;;;;;32.32;15.07;94346.09;4998170;28;20057;-67
2022/07/16 10:28:39;;;;;;;3.80;2.50;;;;;;;34.48;13.30;94348.59;5012464;28;20388;-65
2022/07/16 10:31:31;;;;;;;4.03;2.22;;;;;;;36.58;11.55;94335.97;5012057;28;20042;-65
2022/07/16 10:34:13;;;;;;;4.30;2.40;;;;;;;33.34;13.93;94344.47;5018257;28;20049;-68
2022/07/16 10:36:46;;;;;;;4.70;2.50;;;;;;;34.12;13.15;94337.97;4996720;28;20827;-64
2022/07/16 10:39:15;;;;;;;6.60;2.67;;;;;;;33.83;13.69;94338.78;5011924;28;20413;-70
2022/07/16 10:41:50;;;;;;;4.10;2.30;;;;;;;35.66;12.59;94339.09;5012423;28;20068;-70
2022/07/16 10:44:18;;;;;;;4.25;2.53;;;;;;;29.22;16.83;94331.81;5011992;28;20042;-65
2022/07/16 10:46:52;;;;;;;4.65;2.50;;;;;;;29.69;17.65;94337.19;5012149;28;20041;-69
2022/07/16 10:49:20;;;;;;;4.70;2.40;;;;;;;28.55;18.65;94338.75;4999158;28;20038;-64
2022/07/16 10:52:03;;;;;;;4.13;2.70;;;;;;;28.56;19.04;94338.22;5012293;28;20041;-66
2022/07/16 10:54:33;;;;;;;4.15;2.70;;;;;;;28.13;19.61;94338.75;5011282;28;20756;-63
2022/07/16 10:57:02;;;;;;;3.95;2.72;;;;;;;27.93;19.70;94337.03;5011991;28;20397;-67
2022/07/16 10:59:34;;;;;;;4.93;2.80;;;;;;;26.28;20.66;94340.53;5010960;28;20852;-67
2022/07/16 11:02:05;;;;;;;5.03;2.70;;;;;;;26.62;19.87;94341.38;5011692;28;20042;-63
2022/07/16 11:04:40;;;;;;;5.32;2.80;;;;;;;24.76;21.87;94345.38;5011065;28;20112;-63
2022/07/16 11:07:10;;;;;;;6.53;2.97;;;;;;;24.36;22.26;94352.66;5011474;28;20048;-62
2022/07/16 11:09:45;;;;;;;4.47;2.70;;;;;;;25.85;21.51;94349.84;5011835;28;20099;-62
2022/07/16 11:12:16;;;;;;;5.28;2.72;;;;;;;25.76;21.89;94338.81;5011330;28;20069;-63
2022/07/16 11:14:45;;;;;;;4.30;2.60;;;;;;;26.91;20.58;94339.31;5011670;28;20050;-62
2022/07/16 11:17:13;;;;;;;4.45;2.80;;;;;;;26.36;21.32;94344.38;5011399;28;20041;-62
2022/07/16 11:19:49;;;;;;;5.30;2.80;;;;;;;27.73;20.67;94337.34;5011508;28;20119;-64
2022/07/16 11:22:20;;;;;;;6.32;2.95;;;;;;;27.15;21.19;94347.22;5011097;28;20060;-62
2022/07/16 11:24:53;;;;;;;4.75;2.80;;;;;;;25.59;23.13;94343.59;5011437;28;20042;-62
2022/07/16 11:27:28;;;;;;;6.63;3.17;;;;;;;24.91;24.16;94343.97;5010634;28;20128;-65
2022/07/16 11:29:59;;;;;;;5.07;2.90;;;;;;;26.39;22.60;94340.53;5011029;28;20048;-65
2022/07/16 11:32:27;;;;;;;3.65;2.70;;;;;;;27.15;21.04;94341.59;5010901;28;20119;-67
2022/07/16 11:34:54;;;;;;;4.88;2.83;;;;;;;26.96;21.38;94337.75;5012882;28;20042;-66
2022/07/16 11:37:21;;;;;;;4.88;2.80;;;;;;;26.39;22.04;94342.59;5010597;28;20054;-67
2022/07/16 11:39:48;;;;;;;3.70;2.80;;;;;;;26.07;22.18;94337.16;5011367;28;20414;-69
2022/07/16 11:42:20;;;;;;;5.20;3.10;;;;;;;24.69;24.14;94338.19;5010716;28;20038;-63
2022/07/16 11:44:47;;;;;;;5.22;3.03;;;;;;;25.41;24.00;94336.34;5011153;28;20058;-62
2022/07/16 11:47:14;;;;;;;4.57;2.75;;;;;;;26.65;22.55;94334.69;5010676;28;20045;-65